createdAt,value
2022-10-13T00:02:53.570Z,100.0
2022-10-13T00:08:25.154Z,100.0
2022-10-13T00:13:56.965Z,100.0
2022-10-13T00:19:28.718Z,100.0
2022-10-13T00:25:00.497Z,100.0
2022-10-13T00:30:32.169Z,100.0
2022-10-13T00:36:03.963Z,100.0
2022-10-13T00:41:35.636Z,100.0
2022-10-13T00:47:07.321Z,100.0
2022-10-13T00:52:45.417Z,100.0
2022-10-13T00:58:17.169Z,100.0
2022-10-13T01:03:49.117Z,100.0
2022-10-13T01:09:26.482Z,100.0
2022-10-13T01:14:52.412Z,100.0
2022-10-13T01:20:24.107Z,100.0
2022-10-13T01:25:55.779Z,100.0
2022-10-13T01:31:27.495Z,100.0
2022-10-13T01:36:59.237Z,100.0
2022-10-13T01:42:30.930Z,100.0
2022-10-13T01:48:02.633Z,100.0
2022-10-13T01:53:40.789Z,100.0
2022-10-13T01:59:12.499Z,100.0
2022-10-13T02:04:44.205Z,100.0
2022-10-13T02:10:15.960Z,100.0
2022-10-13T02:15:47.677Z,100.0
2022-10-13T02:21:19.425Z,100.0
2022-10-13T02:26:51.673Z,100.0
2022-10-13T02:32:23.389Z,100.0
2022-10-13T02:37:55.165Z,100.0
2022-10-13T02:43:26.882Z,100.0
2022-10-13T02:48:58.833Z,100.0
2022-10-13T02:54:34.812Z,100.0
2022-10-13T03:00:06.505Z,100.0
2022-10-13T03:05:38.269Z,100.0
2022-10-13T03:11:09.970Z,100.0
2022-10-13T03:16:41.841Z,100.0
2022-10-13T03:22:13.417Z,100.0
2022-10-13T03:27:45.117Z,100.0
2022-10-13T03:33:16.865Z,100.0
2022-10-13T03:38:48.537Z,100.0
2022-10-13T03:44:20.352Z,100.0
2022-10-13T03:49:52.076Z,100.0
2022-10-13T03:55:28.153Z,100.0
2022-10-13T04:00:59.902Z,100.0
2022-10-13T04:06:31.645Z,100.0
2022-10-13T04:12:03.357Z,100.0
2022-10-13T04:17:35.141Z,100.0
2022-10-13T04:23:06.789Z,100.0
2022-10-13T04:28:38.558Z,100.0
2022-10-13T04:34:10.436Z,100.0
2022-10-13T04:39:41.961Z,100.0
2022-10-13T04:45:13.685Z,100.0
2022-10-13T04:50:45.461Z,100.0
2022-10-13T04:56:21.502Z,100.0
2022-10-13T05:01:53.298Z,100.0
2022-10-13T05:07:25.034Z,100.0
2022-10-13T05:12:56.745Z,100.0
2022-10-13T05:18:28.478Z,100.0
2022-10-13T05:24:00.166Z,100.0
2022-10-13T05:29:31.954Z,100.0
2022-10-13T05:35:03.767Z,100.0
2022-10-13T05:40:35.382Z,100.0
2022-10-13T05:46:07.079Z,100.0
2022-10-13T05:51:38.795Z,100.0
2022-10-13T05:57:17.067Z,100.0
2022-10-13T06:02:48.650Z,100.0
2022-10-13T06:08:20.442Z,100.0
2022-10-13T06:13:52.121Z,100.0
2022-10-13T06:19:23.842Z,100.0
2022-10-13T06:24:55.510Z,100.0
2022-10-13T06:30:27.275Z,100.0
2022-10-13T06:35:59.026Z,100.0
2022-10-13T06:41:30.697Z,100.0
2022-10-13T06:47:02.457Z,100.0
2022-10-13T06:52:34.166Z,100.0
2022-10-13T06:58:12.229Z,100.0
2022-10-13T07:03:43.999Z,100.0
2022-10-13T07:09:15.767Z,100.0
2022-10-13T07:14:47.474Z,100.0
2022-10-13T07:20:19.210Z,100.0
2022-10-13T07:25:51.159Z,100.0
2022-10-13T07:31:22.666Z,100.0
2022-10-13T07:36:54.386Z,100.0
2022-10-13T07:42:26.055Z,100.0
2022-10-13T07:48:00.798Z,100.0
2022-10-13T07:53:32.542Z,100.0
2022-10-13T07:59:08.601Z,100.0
2022-10-13T08:04:40.365Z,100.0
2022-10-13T08:10:12.093Z,100.0
2022-10-13T08:15:43.807Z,100.0
2022-10-13T08:21:58.000Z,100.0
2022-10-13T08:26:47.273Z,100.0
2022-10-13T08:32:19.513Z,100.0
2022-10-13T08:37:50.719Z,100.0
2022-10-13T08:43:22.382Z,100.0
2022-10-13T08:48:54.157Z,100.0
2022-10-13T08:54:25.979Z,99.83
2022-10-13T09:00:02.114Z,99.63
2022-10-13T09:05:33.742Z,97.67
2022-10-13T09:11:05.407Z,98.02
2022-10-13T09:16:37.160Z,98.33
2022-10-13T09:22:08.894Z,97.96
2022-10-13T09:27:40.603Z,99.22
2022-10-13T09:33:12.352Z,97.06
2022-10-13T09:38:44.091Z,97.21
2022-10-13T09:44:15.798Z,97.37
2022-10-13T09:49:47.449Z,96.42
2022-10-13T09:55:19.204Z,95.72
2022-10-13T10:00:55.364Z,94.96
2022-10-13T10:06:28.376Z,94.57
2022-10-13T10:11:58.817Z,93.64
2022-10-13T10:17:30.539Z,93.97
2022-10-13T10:23:02.250Z,93.0
2022-10-13T10:28:34.128Z,94.6
2022-10-13T10:34:05.809Z,94.04
2022-10-13T10:39:37.425Z,93.73
2022-10-13T10:45:09.160Z,93.18
2022-10-13T10:50:40.822Z,93.37
2022-10-13T10:56:12.602Z,94.57
2022-10-13T11:01:48.763Z,92.63
2022-10-13T11:07:20.444Z,92.8
2022-10-13T11:12:52.415Z,92.7
2022-10-13T11:18:23.916Z,92.88
2022-10-13T11:24:02.294Z,90.52
2022-10-13T11:29:27.569Z,91.54
2022-10-13T11:34:59.030Z,91.62
2022-10-13T11:40:30.817Z,90.9
2022-10-13T11:46:02.533Z,88.89
2022-10-13T11:51:34.343Z,88.8
2022-10-13T11:57:05.974Z,91.04
2022-10-13T12:02:42.158Z,89.68
2022-10-13T12:08:13.787Z,89.81
2022-10-13T12:13:45.548Z,90.96
2022-10-13T12:19:17.229Z,87.09
2022-10-13T12:24:48.916Z,87.83
2022-10-13T12:30:20.673Z,87.96
2022-10-13T12:35:52.433Z,88.15
2022-10-13T12:41:24.157Z,87.3
2022-10-13T12:46:55.840Z,89.05
2022-10-13T12:52:27.645Z,87.45
2022-10-13T12:57:59.250Z,86.49
2022-10-13T13:03:35.382Z,85.17
2022-10-13T13:09:07.134Z,85.77
2022-10-13T13:14:38.832Z,87.07
2022-10-13T13:20:10.558Z,87.62
2022-10-13T13:25:42.281Z,87.65
2022-10-13T13:31:14.040Z,87.53
2022-10-13T13:36:45.777Z,87.5
2022-10-13T13:42:17.525Z,88.34
2022-10-13T13:47:49.197Z,87.53
2022-10-13T13:53:20.892Z,89.81
2022-10-13T13:58:52.651Z,89.01
2022-10-13T14:04:30.673Z,91.06
2022-10-13T14:10:03.034Z,92.34
2022-10-13T14:15:34.171Z,93.54
2022-10-13T14:21:05.912Z,93.47
2022-10-13T14:26:37.696Z,94.72
2022-10-13T14:32:09.579Z,98.75
2022-10-13T14:37:41.206Z,99.65
2022-10-13T14:43:12.937Z,100.0
2022-10-13T14:48:44.624Z,100.0
2022-10-13T14:54:16.361Z,100.0
2022-10-13T14:59:48.085Z,100.0
2022-10-13T15:05:26.175Z,100.0
2022-10-13T15:10:57.929Z,100.0
2022-10-13T15:16:30.486Z,100.0
2022-10-13T15:22:02.214Z,100.0
2022-10-13T15:27:41.795Z,100.0
2022-10-13T15:33:05.693Z,100.0
2022-10-13T15:38:37.419Z,100.0
2022-10-13T15:44:09.171Z,100.0
2022-10-13T15:49:40.857Z,100.0
2022-10-13T15:55:13.013Z,100.0
2022-10-13T16:00:44.427Z,100.0
2022-10-13T16:06:20.491Z,100.0
2022-10-13T16:11:52.161Z,100.0
2022-10-13T16:17:23.897Z,100.0
2022-10-13T16:22:55.689Z,100.0
2022-10-13T16:28:27.419Z,100.0
2022-10-13T16:33:59.101Z,100.0
2022-10-13T16:39:30.781Z,100.0
2022-10-13T16:45:02.537Z,100.0
2022-10-13T16:50:34.249Z,100.0
2022-10-13T16:56:06.016Z,100.0
2022-10-13T17:01:37.773Z,100.0
2022-10-13T17:07:13.829Z,100.0
2022-10-13T17:12:45.571Z,100.0
2022-10-13T17:18:17.286Z,100.0
2022-10-13T17:23:49.369Z,100.0
2022-10-13T17:29:20.680Z,100.0
2022-10-13T17:34:52.450Z,100.0
2022-10-13T17:40:24.187Z,100.0
2022-10-13T17:46:34.864Z,100.0
2022-10-13T17:51:27.613Z,100.0
2022-10-13T17:56:59.465Z,100.0
2022-10-13T18:02:31.053Z,100.0
2022-10-13T18:08:09.176Z,100.0
2022-10-13T18:13:40.986Z,100.0
2022-10-13T18:19:12.738Z,100.0
2022-10-13T18:24:44.361Z,100.0
2022-10-13T18:30:22.565Z,100.0
2022-10-13T18:35:47.774Z,100.0
2022-10-13T18:41:19.508Z,100.0
2022-10-13T18:46:51.252Z,100.0
2022-10-13T18:52:22.932Z,100.0
2022-10-13T18:57:54.658Z,100.0
2022-10-13T19:03:26.393Z,100.0
2022-10-13T19:09:02.475Z,100.0
2022-10-13T19:14:34.193Z,100.0
2022-10-13T19:20:05.963Z,100.0
2022-10-13T19:25:37.671Z,100.0
2022-10-13T19:31:09.423Z,100.0
2022-10-13T19:36:41.134Z,100.0
2022-10-13T19:42:12.833Z,100.0
2022-10-13T19:47:44.555Z,100.0
2022-10-13T19:53:16.434Z,100.0
2022-10-13T19:58:48.001Z,100.0
2022-10-13T20:04:19.727Z,100.0
2022-10-13T20:09:55.867Z,100.0
2022-10-13T20:15:27.574Z,100.0
2022-10-13T20:20:59.279Z,100.0
2022-10-13T20:26:31.376Z,100.0
2022-10-13T20:32:02.740Z,100.0
2022-10-13T20:37:34.580Z,100.0
2022-10-13T20:43:06.211Z,100.0
2022-10-13T20:49:11.689Z,100.0
2022-10-13T20:54:09.637Z,100.0
2022-10-13T20:59:41.337Z,100.0
2022-10-13T21:05:13.090Z,100.0
2022-10-13T21:10:51.192Z,100.0
2022-10-13T21:16:22.936Z,100.0
2022-10-13T21:21:54.829Z,100.0
2022-10-13T21:27:26.404Z,100.0
2022-10-13T21:32:58.152Z,100.0
2022-10-13T21:38:29.808Z,100.0
2022-10-13T21:44:01.572Z,100.0
2022-10-13T21:49:33.216Z,100.0
2022-10-13T21:55:04.931Z,100.0
2022-10-13T22:00:36.772Z,100.0
2022-10-13T22:06:08.496Z,100.0
2022-10-13T22:11:44.551Z,100.0
2022-10-13T22:17:16.253Z,100.0
2022-10-13T22:22:48.089Z,100.0
2022-10-13T22:28:19.756Z,100.0
2022-10-13T22:33:51.397Z,100.0
2022-10-13T22:39:23.182Z,100.0
2022-10-13T22:44:55.002Z,100.0
2022-10-13T22:50:26.530Z,100.0
2022-10-13T22:55:58.425Z,100.0
2022-10-13T23:01:30.292Z,100.0
2022-10-13T23:07:01.784Z,100.0
2022-10-13T23:12:39.858Z,100.0
2022-10-13T23:18:11.900Z,100.0
2022-10-13T23:23:43.324Z,100.0
2022-10-13T23:29:14.951Z,100.0
2022-10-13T23:34:46.807Z,100.0
2022-10-13T23:40:18.532Z,100.0
2022-10-13T23:45:50.222Z,100.0
2022-10-13T23:51:21.939Z,100.0
2022-10-13T23:56:53.680Z,100.0
